Time;durP1;ratioP1;P1;durP2;ratioP2;P2;SDS_P1;SDS_P2;PMS_P1;PMS_P2;Temp;Humidity;BMP_temperature;BMP_pressure;BME280_temperature;BME280_humidity;BME280_pressure;Samples;Min_cycle;Max_cycle;Signal;HPM_P1;HPM_P2
2021/10/12 00:01:46;;;;;;;4.05;1.80;;;;;;;17.49;44.39;102036.34;4989932;28;20089;-75
2021/10/12 00:04:13;;;;;;;5.45;1.95;;;;;;;17.47;44.09;102037.47;4993171;28;20050;-75
2021/10/12 00:06:39;;;;;;;5.53;2.08;;;;;;;17.44;44.43;102033.09;4990954;28;20120;-74
2021/10/12 00:09:06;;;;;;;5.57;2.03;;;;;;;17.43;44.51;102028.59;4991349;28;20548;-74
2021/10/12 00:11:32;;;;;;;5.05;2.20;;;;;;;17.42;44.77;102029.59;4989111;28;20073;-74
2021/10/12 00:13:59;;;;;;;4.97;1.88;;;;;;;17.39;44.19;102024.31;4975736;28;20458;-74
2021/10/12 00:16:26;;;;;;;5.88;2.38;;;;;;;17.38;44.47;102025.31;4991677;28;20050;-74
2021/10/12 00:18:53;;;;;;;3.63;1.85;;;;;;;17.38;44.60;102016.19;4989818;28;20056;-74
2021/10/12 00:21:20;;;;;;;2.97;1.65;;;;;;;17.37;44.33;102006.25;4990750;28;20046;-74
2021/10/12 00:23:47;;;;;;;3.63;2.03;;;;;;;17.37;44.75;102006.25;4990103;28;20460;-74
2021/10/12 00:26:13;;;;;;;5.97;1.90;;;;;;;17.34;44.61;102007.34;4989890;28;20149;-74
2021/10/12 00:28:40;;;;;;;4.78;2.00;;;;;;;17.35;44.60;102002.72;4977321;28;20050;-74
2021/10/12 00:31:06;;;;;;;3.92;1.88;;;;;;;17.34;45.02;101995.47;4983731;28;20136;-74
2021/10/12 00:33:33;;;;;;;4.95;1.92;;;;;;;17.34;44.99;102001.84;4990476;28;20084;-74
2021/10/12 00:36:00;;;;;;;4.50;1.85;;;;;;;17.33;44.80;101997.34;4990410;28;20074;-74
2021/10/12 00:38:27;;;;;;;4.32;1.90;;;;;;;17.34;45.33;101998.22;4989388;28;20494;-74
2021/10/12 00:40:54;;;;;;;3.22;1.73;;;;;;;17.33;45.27;101994.59;4990001;28;20046;-74
2021/10/12 00:43:25;;;;;;;4.10;1.50;;;;;;;17.34;45.06;101996.34;4978182;28;20065;-74
2021/10/12 00:45:54;;;;;;;3.43;1.50;;;;;;;17.33;45.54;102001.97;4988339;28;20133;-74
2021/10/12 00:48:22;;;;;;;5.63;2.20;;;;;;;17.33;45.42;101999.22;4989395;28;20169;-74
2021/10/12 00:50:48;;;;;;;4.10;1.83;;;;;;;17.32;45.75;101984.63;4989276;28;20097;-74
2021/10/12 00:53:15;;;;;;;4.13;1.80;;;;;;;17.32;45.73;101984.63;4987940;28;20066;-74
2021/10/12 00:55:42;;;;;;;5.28;1.95;;;;;;;17.33;45.59;101990.97;4991281;28;20463;-73
2021/10/12 00:58:13;;;;;;;3.25;1.48;;;;;;;17.34;45.20;101981.75;4988781;28;20145;-73
2021/10/12 01:00:40;;;;;;;3.22;1.52;;;;;;;17.34;45.21;101987.25;4990803;28;20042;-73
2021/10/12 01:03:07;;;;;;;4.50;1.70;;;;;;;17.34;45.80;101976.25;4968925;28;20149;-73
2021/10/12 01:05:36;;;;;;;4.10;1.58;;;;;;;17.35;45.46;101975.28;4990209;28;20058;-73
2021/10/12 01:08:03;;;;;;;2.38;1.38;;;;;;;17.33;45.49;101980.88;4988210;28;20493;-73
2021/10/12 01:10:30;;;;;;;3.20;1.60;;;;;;;17.35;45.29;101972.53;4990092;28;20085;-73
2021/10/12 01:12:57;;;;;;;4.88;1.60;;;;;;;17.34;45.72;101971.66;4986715;28;20077;-73
2021/10/12 01:15:24;;;;;;;5.25;1.55;;;;;;;17.34;45.56;101968.03;4990457;28;20120;-73
2021/10/12 01:17:50;;;;;;;4.45;1.80;;;;;;;17.33;45.65;101967.16;4988735;28;20081;-73
2021/10/12 01:20:17;;;;;;;3.13;1.42;;;;;;;17.34;45.82;101966.16;4989774;28;20446;-73
2021/10/12 01:22:46;;;;;;;2.85;1.10;;;;;;;17.34;45.98;101968.03;4971403;28;20133;-74
2021/10/12 01:25:14;;;;;;;2.55;1.25;;;;;;;17.33;46.01;101960.78;4990292;28;20137;-73
2021/10/12 01:27:41;;;;;;;3.38;1.70;;;;;;;17.33;45.87;101960.78;4986798;28;20046;-73
2021/10/12 01:30:10;;;;;;;4.80;1.60;;;;;;;17.34;45.86;101959.78;4990048;28;20082;-73
2021/10/12 01:32:42;;;;;;;2.85;1.30;;;;;;;17.33;46.28;101949.81;4984307;28;20471;-73
2021/10/12 01:35:10;;;;;;;3.47;1.33;;;;;;;17.30;45.73;101950.91;4990687;28;20054;-73
2021/10/12 01:37:37;;;;;;;3.10;1.17;;;;;;;17.30;45.97;101948.16;4962616;28;20149;-73
2021/10/12 01:40:06;;;;;;;2.45;1.15;;;;;;;17.30;46.20;101944.53;4989540;28;20050;-73
2021/10/12 01:42:33;;;;;;;3.83;1.52;;;;;;;17.28;45.90;101949.31;4988788;28;20081;-73
2021/10/12 01:45:01;;;;;;;4.05;1.65;;;;;;;17.29;46.01;101940.94;4988116;28;20051;-73
2021/10/12 01:47:28;;;;;;;2.28;1.48;;;;;;;17.28;46.38;101941.06;4988570;28;20100;-74
2021/10/12 01:49:56;;;;;;;2.97;1.48;;;;;;;17.27;46.45;101948.41;4988607;28;20042;-73
2021/10/12 01:52:23;;;;;;;3.22;1.42;;;;;;;17.27;45.92;101945.69;4984170;28;20041;-73
2021/10/12 01:54:49;;;;;;;3.60;1.67;;;;;;;17.28;46.36;101944.69;4991013;28;20078;-73
2021/10/12 01:57:18;;;;;;;4.28;1.60;;;;;;;17.28;46.05;101941.06;4987303;28;20054;-74
2021/10/12 01:59:45;;;;;;;2.70;1.55;;;;;;;17.28;46.02;101932.84;4987063;28;20603;-73
2021/10/12 02:02:12;;;;;;;4.07;1.50;;;;;;;17.27;46.11;101934.69;4984521;28;20386;-73
2021/10/12 02:04:39;;;;;;;4.45;1.80;;;;;;;17.27;45.92;101934.69;4988506;28;20047;-73
2021/10/12 02:07:06;;;;;;;3.83;1.77;;;;;;;17.27;46.49;101936.56;4987366;28;20109;-73
2021/10/12 02:09:33;;;;;;;3.80;1.88;;;;;;;17.27;46.42;101925.59;4989115;28;20130;-73
2021/10/12 02:12:00;;;;;;;4.50;1.60;;;;;;;17.25;46.10;101928.44;4988900;28;20042;-72
2021/10/12 02:14:27;;;;;;;3.03;1.55;;;;;;;17.24;46.61;101929.44;4988207;28;20612;-73
2021/10/12 02:16:54;;;;;;;3.50;1.65;;;;;;;17.24;46.72;101925.81;4986746;28;20104;-73
2021/10/12 02:19:20;;;;;;;4.82;1.60;;;;;;;17.23;46.46;101911.22;4989597;28;20113;-73
2021/10/12 02:21:47;;;;;;;2.95;1.60;;;;;;;17.23;46.56;101907.59;4987556;28;20660;-73
2021/10/12 02:24:13;;;;;;;4.68;1.80;;;;;;;17.23;46.31;101902.09;4988981;28;20058;-73
2021/10/12 02:26:40;;;;;;;2.95;1.60;;;;;;;17.23;46.54;101904.84;4986687;28;20137;-73
2021/10/12 02:29:07;;;;;;;4.22;1.70;;;;;;;17.22;47.09;101903.97;4970311;28;20125;-73
2021/10/12 02:31:33;;;;;;;4.03;1.88;;;;;;;17.20;47.04;101896.88;4989754;28;20137;-73
2021/10/12 02:34:00;;;;;;;3.85;1.60;;;;;;;17.20;46.58;101899.63;4988071;28;20410;-73
2021/10/12 02:36:27;;;;;;;2.67;1.58;;;;;;;17.21;46.96;101890.41;4989434;28;20100;-73
2021/10/12 02:38:54;;;;;;;3.45;1.90;;;;;;;17.21;46.53;101888.53;4986302;28;20050;-73
2021/10/12 02:41:21;;;;;;;3.80;1.65;;;;;;;17.21;46.81;101893.13;4987067;28;20062;-73
2021/10/12 02:43:47;;;;;;;3.47;1.90;;;;;;;17.19;46.96;101897.88;4971194;28;20066;-73
2021/10/12 02:46:14;;;;;;;3.22;1.77;;;;;;;17.19;46.97;101885.03;4985854;28;20480;-73
2021/10/12 02:48:41;;;;;;;5.00;2.10;;;;;;;17.20;46.39;101889.53;4988709;28;20482;-73
2021/10/12 02:51:07;;;;;;;4.55;2.00;;;;;;;17.19;46.80;101878.66;4989683;28;20088;-73
2021/10/12 02:53:34;;;;;;;4.82;2.00;;;;;;;17.19;47.13;101873.16;4992171;28;20124;-73
2021/10/12 02:56:00;;;;;;;4.13;2.13;;;;;;;17.17;46.62;101864.16;4995967;28;20109;-73
2021/10/12 02:58:27;;;;;;;4.03;2.00;;;;;;;17.17;46.68;101865.03;4987993;28;20807;-73
2021/10/12 03:00:54;;;;;;;5.65;2.00;;;;;;;17.17;46.93;101861.44;4989325;28;20097;-73
2021/10/12 03:03:20;;;;;;;5.07;2.03;;;;;;;17.16;46.93;101852.31;4988296;28;20046;-73
2021/10/12 03:05:47;;;;;;;3.50;2.20;;;;;;;17.16;46.98;101834.97;4986672;28;20047;-73
2021/10/12 03:08:13;;;;;;;5.18;2.45;;;;;;;17.16;46.58;101834.97;4985797;28;20054;-73
2021/10/12 03:10:40;;;;;;;4.93;2.22;;;;;;;17.16;46.79;101835.84;4987447;28;20050;-73
2021/10/12 03:13:07;;;;;;;4.45;2.55;;;;;;;17.15;47.12;101827.72;4983812;28;20046;-73
2021/10/12 03:15:34;;;;;;;4.32;2.38;;;;;;;17.15;46.97;101830.47;4989542;28;20042;-73
2021/10/12 03:18:01;;;;;;;4.38;2.45;;;;;;;17.14;46.89;101821.38;4991499;28;20463;-74
2021/10/12 03:20:27;;;;;;;6.57;2.40;;;;;;;17.13;47.10;101821.50;4987302;28;20051;-73
2021/10/12 03:22:54;;;;;;;6.32;2.50;;;;;;;17.12;46.52;101817.91;4991610;28;20050;-73
2021/10/12 03:25:20;;;;;;;5.50;2.80;;;;;;;17.11;47.12;101813.41;4993516;28;20130;-73
2021/10/12 03:27:47;;;;;;;6.15;2.65;;;;;;;17.09;46.89;101813.50;4989748;28;20050;-73
2021/10/12 03:30:14;;;;;;;6.20;3.00;;;;;;;17.09;47.18;101808.03;4988437;28;20600;-73
2021/10/12 03:32:40;;;;;;;6.15;3.05;;;;;;;17.09;47.06;101810.78;4989732;28;20137;-74
2021/10/12 03:35:07;;;;;;;5.13;2.55;;;;;;;17.06;47.18;101816.50;4992798;28;20054;-73
2021/10/12 03:37:34;;;;;;;6.30;2.90;;;;;;;17.06;47.29;101813.75;4991374;28;20070;-73
2021/10/12 03:40:00;;;;;;;4.32;2.30;;;;;;;17.05;47.12;101819.34;4986920;28;20054;-73
2021/10/12 03:42:27;;;;;;;5.15;2.40;;;;;;;17.03;47.30;101808.53;4991159;28;20142;-73
2021/10/12 03:44:54;;;;;;;6.07;2.78;;;;;;;17.02;47.15;101816.88;4989175;28;20054;-73
2021/10/12 03:47:20;;;;;;;5.30;2.72;;;;;;;17.01;47.31;101805.00;4990500;28;20508;-73
2021/10/12 03:49:47;;;;;;;6.35;3.25;;;;;;;17.01;47.01;101809.63;4987194;28;20446;-73
2021/10/12 03:52:13;;;;;;;4.30;2.90;;;;;;;17.00;47.08;101814.22;4991418;28;20154;-73
2021/10/12 03:54:40;;;;;;;6.65;3.30;;;;;;;17.00;46.84;101808.75;4986402;28;20138;-73
2021/10/12 03:57:07;;;;;;;6.10;3.20;;;;;;;16.98;46.82;101809.84;4990404;28;20085;-73
2021/10/12 03:59:33;;;;;;;7.40;3.22;;;;;;;16.96;47.30;101810.00;4987321;28;20604;-73
2021/10/12 04:02:00;;;;;;;6.18;3.53;;;;;;;16.96;47.27;101804.50;4991330;28;20118;-73
2021/10/12 04:04:27;;;;;;;6.05;3.50;;;;;;;16.96;47.43;101811.88;4990920;28;20703;-74
2021/10/12 04:06:53;;;;;;;6.35;3.33;;;;;;;16.95;47.57;101812.84;4991178;28;20085;-74
2021/10/12 04:09:20;;;;;;;6.88;3.83;;;;;;;16.93;47.59;101807.47;4989827;28;20438;-73
2021/10/12 04:11:46;;;;;;;4.65;3.30;;;;;;;16.93;47.32;101803.88;4989208;28;20552;-74
2021/10/12 04:14:13;;;;;;;6.85;3.72;;;;;;;16.91;47.24;101795.75;4987172;28;20073;-73
2021/10/12 04:16:41;;;;;;;6.03;3.30;;;;;;;16.91;47.39;101797.63;4991011;28;20109;-73
2021/10/12 04:19:08;;;;;;;7.05;3.53;;;;;;;16.90;47.31;101787.63;4986303;28;20233;-74
2021/10/12 04:21:35;;;;;;;7.13;4.10;;;;;;;16.90;47.12;101782.16;4992383;28;20100;-73
2021/10/12 04:24:01;;;;;;;8.50;4.25;;;;;;;16.88;47.30;101771.31;4987627;28;20070;-74
2021/10/12 04:26:28;;;;;;;6.20;3.88;;;;;;;16.89;47.29;101766.69;4992365;28;20129;-73
2021/10/12 04:28:54;;;;;;;7.88;4.22;;;;;;;16.88;47.45;101774.06;4988743;28;20073;-73
2021/10/12 04:31:21;;;;;;;10.07;4.60;;;;;;;16.86;47.35;101765.06;4987852;28;20097;-73
2021/10/12 04:33:48;;;;;;;6.90;3.88;;;;;;;16.85;47.70;101757.84;4990912;28;20742;-73
2021/10/12 04:36:14;;;;;;;7.65;3.80;;;;;;;16.84;47.32;101756.09;4990980;28;20137;-73
2021/10/12 04:38:42;;;;;;;5.63;3.90;;;;;;;16.83;47.18;101759.81;4986983;28;20518;-73
2021/10/12 04:41:09;;;;;;;10.48;4.50;;;;;;;16.81;47.27;101755.44;4988956;28;20092;-74
2021/10/12 04:43:36;;;;;;;7.72;3.63;;;;;;;16.80;47.59;101760.06;4986735;28;20077;-73
2021/10/12 04:46:02;;;;;;;6.63;3.42;;;;;;;16.78;47.55;101755.69;4993156;28;20050;-73
2021/10/12 04:48:29;;;;;;;7.57;4.00;;;;;;;16.77;47.50;101751.22;4994319;28;20077;-73
2021/10/12 04:50:56;;;;;;;7.47;3.58;;;;;;;16.75;47.86;101751.31;4991127;28;20039;-73
2021/10/12 04:53:23;;;;;;;5.40;3.50;;;;;;;16.75;47.62;101751.31;4989555;28;20054;-73
2021/10/12 04:55:50;;;;;;;6.38;3.58;;;;;;;16.72;47.85;101749.69;4987401;28;20046;-73
2021/10/12 04:58:17;;;;;;;5.07;3.25;;;;;;;16.71;47.64;101749.84;4989337;28;20105;-73
2021/10/12 05:00:44;;;;;;;7.85;3.63;;;;;;;16.70;47.56;101734.38;4980776;28;20411;-74
2021/10/12 05:03:10;;;;;;;7.43;3.83;;;;;;;16.69;47.33;101733.50;4990275;28;20053;-74
2021/10/12 05:05:38;;;;;;;6.43;3.78;;;;;;;16.67;47.68;101729.13;4989656;28;20073;-74
2021/10/12 05:08:04;;;;;;;6.28;3.63;;;;;;;16.67;47.80;101731.84;4987643;28;20065;-74
2021/10/12 05:10:32;;;;;;;6.90;3.75;;;;;;;16.66;47.75;101730.97;4990170;28;20062;-74
2021/10/12 05:12:59;;;;;;;7.78;3.22;;;;;;;16.65;47.89;101726.50;4973431;28;20047;-74
2021/10/12 05:15:28;;;;;;;8.30;3.58;;;;;;;16.64;47.53;101724.72;4989885;28;20477;-74
2021/10/12 05:17:56;;;;;;;6.20;3.50;;;;;;;16.64;47.64;101730.22;4988180;28;20050;-74
2021/10/12 05:20:22;;;;;;;5.35;3.30;;;;;;;16.64;47.60;101734.81;4989253;28;20556;-74
2021/10/12 05:22:49;;;;;;;7.32;3.30;;;;;;;16.62;47.61;101734.97;4989782;28;20153;-73
2021/10/12 05:25:16;;;;;;;6.97;3.10;;;;;;;16.61;47.77;101730.47;4990470;28;20629;-74
2021/10/12 05:27:43;;;;;;;5.60;3.42;;;;;;;16.59;47.96;101732.44;4986790;28;20051;-73
2021/10/12 05:30:11;;;;;;;6.68;3.10;;;;;;;16.61;48.02;101724.13;4989118;28;20078;-73
2021/10/12 05:32:40;;;;;;;4.85;2.95;;;;;;;16.60;47.98;101722.34;4988794;28;20620;-73
2021/10/12 05:35:08;;;;;;;5.10;3.05;;;;;;;16.60;47.71;101720.47;4982644;28;20660;-74
2021/10/12 05:37:35;;;;;;;5.82;3.42;;;;;;;16.61;47.64;101718.63;4970179;28;20516;-73
2021/10/12 05:40:04;;;;;;;6.95;3.30;;;;;;;16.60;48.10;101711.38;4992073;28;20100;-73
2021/10/12 05:42:30;;;;;;;5.68;2.90;;;;;;;16.58;47.78;101708.75;4988728;28;20074;-73
2021/10/12 05:44:57;;;;;;;5.35;2.83;;;;;;;16.58;48.10;101706.00;4990091;28;20057;-73
2021/10/12 05:47:23;;;;;;;6.47;3.00;;;;;;;16.58;47.84;101699.63;4987134;28;20467;-74
2021/10/12 05:49:50;;;;;;;6.43;3.03;;;;;;;16.56;47.82;101697.00;4990955;28;20053;-73
2021/10/12 05:52:19;;;;;;;6.85;3.50;;;;;;;16.58;47.78;101707.88;4990528;28;20057;-73
2021/10/12 05:54:56;;;;;;;7.10;3.58;;;;;;;16.56;48.23;101707.97;4987468;28;20133;-73
2021/10/12 05:57:36;;;;;;;6.10;3.10;;;;;;;16.55;47.90;101702.63;4987511;28;20046;-73
2021/10/12 06:00:04;;;;;;;5.85;3.10;;;;;;;16.54;47.81;101706.38;4985869;28;20118;-74
2021/10/12 06:02:30;;;;;;;3.90;2.65;;;;;;;16.53;47.98;101708.25;4983232;28;20050;-73
2021/10/12 06:04:57;;;;;;;5.45;2.63;;;;;;;16.54;47.80;101707.25;4994277;28;20731;-72
2021/10/12 06:07:24;;;;;;;6.07;2.63;;;;;;;16.52;48.23;101701.00;4987020;28;20054;-72
2021/10/12 06:10:37;;;;;;;5.53;2.83;;;;;;;16.53;48.31;101700.00;4989500;28;20046;-71
2021/10/12 06:13:25;;;;;;;5.60;2.90;;;;;;;16.49;47.80;101698.50;4899488;29;20059;-73
2021/10/12 06:15:53;;;;;;;5.90;2.80;;;;;;;16.52;48.08;101689.16;4927608;29;20052;-74
2021/10/12 06:18:20;;;;;;;5.68;3.38;;;;;;;16.53;48.43;101689.06;4927437;29;20139;-74
2021/10/12 06:20:48;;;;;;;6.22;2.90;;;;;;;16.54;48.12;101699.03;4928149;29;20139;-72
2021/10/12 06:23:15;;;;;;;5.90;2.72;;;;;;;16.53;47.97;101688.19;4927953;29;20048;-73
2021/10/12 06:25:47;;;;;;;6.93;3.05;;;;;;;16.56;48.35;101690.66;4942817;29;20047;-71
2021/10/12 06:28:17;;;;;;;6.28;3.13;;;;;;;16.55;47.84;101680.72;4907582;29;20393;-72
2021/10/12 06:30:44;;;;;;;5.22;2.78;;;;;;;16.57;47.99;101684.19;4924956;29;20171;-72
2021/10/12 06:33:12;;;;;;;4.45;2.80;;;;;;;16.55;48.30;101680.72;4927822;29;20827;-72
2021/10/12 06:35:39;;;;;;;5.63;2.72;;;;;;;16.55;48.33;101687.06;4928996;29;20063;-72
2021/10/12 06:38:06;;;;;;;4.55;2.97;;;;;;;16.54;48.20;101684.44;4924232;29;20130;-72
2021/10/12 06:40:34;;;;;;;6.15;2.47;;;;;;;16.53;48.10;101686.31;4930101;29;20454;-72
2021/10/12 06:43:02;;;;;;;8.27;3.00;;;;;;;16.51;48.31;101680.06;4944854;29;20115;-72
2021/10/12 06:45:29;;;;;;;5.55;2.72;;;;;;;16.53;48.33;101680.81;4934838;28;20063;-72
2021/10/12 06:48:10;;;;;;;5.13;2.67;;;;;;;16.51;48.53;101674.59;4927008;29;20206;-72
2021/10/12 06:50:37;;;;;;;4.43;2.70;;;;;;;16.53;48.29;101668.97;4966943;28;20088;-72
2021/10/12 06:53:04;;;;;;;5.10;2.80;;;;;;;16.52;47.99;101669.97;4992212;28;20564;-72
2021/10/12 06:55:31;;;;;;;5.50;2.80;;;;;;;16.52;48.55;101669.97;4974839;28;20129;-72
2021/10/12 06:57:58;;;;;;;5.15;2.80;;;;;;;16.50;48.31;101667.34;4989012;28;20046;-72
2021/10/12 07:00:25;;;;;;;6.68;2.95;;;;;;;16.50;48.70;101666.47;4997313;28;20046;-72
2021/10/12 07:02:52;;;;;;;5.47;2.90;;;;;;;16.50;48.36;101664.59;4994511;28;20074;-72
2021/10/12 07:05:19;;;;;;;5.53;3.38;;;;;;;16.50;48.46;101656.38;4994570;28;20060;-71
2021/10/12 07:07:45;;;;;;;6.53;2.80;;;;;;;16.50;48.50;101669.22;4998648;28;20058;-72
2021/10/12 07:10:13;;;;;;;5.30;2.40;;;;;;;16.50;48.44;101666.47;4992750;28;20058;-72
2021/10/12 07:12:40;;;;;;;6.70;2.63;;;;;;;16.49;48.60;101657.38;4990170;28;20306;-72
2021/10/12 07:15:08;;;;;;;5.05;2.55;;;;;;;16.48;48.90;101652.88;4987162;28;20054;-72
2021/10/12 07:17:35;;;;;;;5.90;2.50;;;;;;;16.48;48.51;101649.25;4991992;28;20108;-72
2021/10/12 07:20:02;;;;;;;6.00;2.67;;;;;;;16.49;48.46;101651.00;4992289;28;20050;-72
2021/10/12 07:22:29;;;;;;;4.20;2.25;;;;;;;16.48;48.74;101655.63;4986133;28;20050;-71
2021/10/12 07:24:56;;;;;;;5.68;2.95;;;;;;;16.48;48.64;101654.75;4990690;28;20073;-72
2021/10/12 07:27:22;;;;;;;4.35;2.35;;;;;;;16.47;48.92;101650.28;4988762;28;20050;-72
2021/10/12 07:29:57;;;;;;;5.95;2.30;;;;;;;16.48;48.86;101650.13;4994515;28;20054;-72
2021/10/12 07:32:24;;;;;;;5.25;2.47;;;;;;;16.48;48.73;101652.00;4991804;28;20046;-72
2021/10/12 07:34:50;;;;;;;5.25;2.45;;;;;;;16.48;49.06;101649.25;4993587;28;20116;-73
2021/10/12 07:37:17;;;;;;;4.28;2.70;;;;;;;16.48;49.11;101650.13;4991278;28;22130;-72
2021/10/12 07:39:44;;;;;;;4.75;2.60;;;;;;;16.48;49.12;101652.00;4991182;28;20054;-72
2021/10/12 07:42:11;;;;;;;7.60;2.70;;;;;;;16.49;49.14;101640.06;4991280;28;20046;-72
2021/10/12 07:44:39;;;;;;;6.13;2.80;;;;;;;16.48;48.99;101641.91;4991968;28;20081;-73
2021/10/12 07:47:06;;;;;;;4.07;2.47;;;;;;;16.48;48.95;101632.81;4987335;28;20050;-72
2021/10/12 07:49:34;;;;;;;4.88;2.53;;;;;;;16.48;48.92;101635.56;4994237;28;20726;-72
2021/10/12 07:52:06;;;;;;;5.68;2.50;;;;;;;16.48;49.39;101628.22;4991041;28;20088;-72
2021/10/12 07:54:49;;;;;;;4.13;2.20;;;;;;;16.48;49.18;101620.00;4996328;28;20104;-72
2021/10/12 07:57:18;;;;;;;6.50;2.80;;;;;;;16.47;49.12;101623.72;4983894;28;20050;-72
2021/10/12 07:59:45;;;;;;;5.32;2.88;;;;;;;16.47;49.15;101631.09;4988463;28;20058;-72
2021/10/12 08:02:13;;;;;;;5.53;2.78;;;;;;;16.47;49.13;101625.63;4990228;28;20054;-72
2021/10/12 08:04:40;;;;;;;4.85;2.80;;;;;;;16.47;49.49;101620.97;4990425;28;20046;-72
2021/10/12 08:07:08;;;;;;;6.15;2.80;;;;;;;16.47;49.60;101614.66;4980535;28;20125;-73
2021/10/12 08:09:35;;;;;;;4.30;2.47;;;;;;;16.48;49.12;101613.63;4987389;28;20046;-72
2021/10/12 08:12:03;;;;;;;4.68;2.55;;;;;;;16.47;49.33;101610.00;4990647;28;20050;-71
2021/10/12 08:14:32;;;;;;;6.22;3.03;;;;;;;16.46;49.30;101607.41;5002803;28;20504;-72
2021/10/12 08:16:59;;;;;;;5.50;2.92;;;;;;;16.46;49.43;101600.06;4993077;28;20096;-72
2021/10/12 08:19:26;;;;;;;5.60;2.90;;;;;;;16.47;49.46;101604.53;4988297;28;20047;-72
2021/10/12 08:21:53;;;;;;;6.32;2.97;;;;;;;16.49;49.79;101598.94;4991231;28;20057;-72
2021/10/12 08:24:26;;;;;;;4.80;2.70;;;;;;;16.49;49.34;101596.19;4977455;28;20056;-72
2021/10/12 08:26:53;;;;;;;4.78;2.72;;;;;;;16.51;49.70;101599.69;4987924;28;20120;-73
2021/10/12 08:29:21;;;;;;;6.57;3.08;;;;;;;16.53;49.85;101598.59;4987919;28;20061;-72
2021/10/12 08:31:47;;;;;;;4.80;3.10;;;;;;;16.53;49.43;101594.97;4990986;28;20089;-73
2021/10/12 08:34:16;;;;;;;7.03;3.38;;;;;;;16.56;49.94;101589.22;4990269;28;20077;-71
2021/10/12 08:36:42;;;;;;;6.43;3.22;;;;;;;16.54;49.45;101583.00;4978995;28;20097;-72
2021/10/12 08:39:09;;;;;;;6.15;3.47;;;;;;;16.54;49.54;101581.16;4991329;28;20393;-72
2021/10/12 08:42:14;;;;;;;4.82;3.28;;;;;;;16.58;49.77;101573.53;4989321;28;20505;-72
2021/10/12 08:44:52;;;;;;;5.63;3.63;;;;;;;16.62;50.24;101569.59;4990717;28;20047;-72
2021/10/12 08:47:20;;;;;;;6.40;4.05;;;;;;;16.60;49.88;101571.53;4989396;28;20078;-72
2021/10/12 08:49:47;;;;;;;4.65;3.33;;;;;;;16.61;50.17;101570.59;4990708;28;20065;-72
2021/10/12 08:52:13;;;;;;;5.18;3.55;;;;;;;16.61;49.80;101570.59;4988988;28;20133;-73
2021/10/12 08:54:40;;;;;;;6.07;3.47;;;;;;;16.62;49.69;101572.34;4988665;28;20108;-72
2021/10/12 08:57:07;;;;;;;5.72;3.03;;;;;;;16.62;50.29;101562.25;4984307;28;20363;-72
2021/10/12 08:59:33;;;;;;;5.10;3.20;;;;;;;16.63;49.82;101568.59;4992947;28;20598;-73
2021/10/12 09:02:03;;;;;;;6.18;4.00;;;;;;;16.66;50.02;101562.84;4989815;28;20445;-73
2021/10/12 09:04:42;;;;;;;5.63;3.10;;;;;;;16.67;50.49;101570.06;4991509;28;20517;-71
2021/10/12 09:07:21;;;;;;;5.25;3.22;;;;;;;16.68;50.30;101569.97;4968875;28;20513;-72
2021/10/12 09:09:49;;;;;;;6.32;3.40;;;;;;;16.66;50.34;101558.25;4989557;28;20513;-71
2021/10/12 09:12:17;;;;;;;5.97;3.40;;;;;;;16.68;50.27;101560.88;4987162;28;20141;-72
2021/10/12 09:14:59;;;;;;;5.15;3.38;;;;;;;16.68;50.49;101552.63;4987959;28;20493;-72
2021/10/12 09:17:37;;;;;;;6.18;2.90;;;;;;;16.68;50.57;101544.41;4987398;28;20124;-71
2021/10/12 09:20:28;;;;;;;5.05;3.03;;;;;;;16.67;50.53;101553.63;4988298;28;20050;-71
2021/10/12 09:23:12;;;;;;;4.97;3.05;;;;;;;16.71;50.48;101555.13;4976647;28;20047;-72
2021/10/12 09:25:42;;;;;;;6.07;3.17;;;;;;;16.69;50.67;101544.28;4986206;28;20433;-72
2021/10/12 09:28:30;;;;;;;6.65;3.00;;;;;;;16.71;50.54;101541.44;4988741;28;20046;-71
2021/10/12 09:30:56;;;;;;;4.57;3.00;;;;;;;16.70;50.45;101542.41;4989760;28;20529;-72
2021/10/12 09:33:23;;;;;;;4.90;3.25;;;;;;;16.73;50.51;101534.78;4989120;28;20183;-71
2021/10/12 09:35:50;;;;;;;4.72;3.30;;;;;;;16.72;50.28;101529.44;4990845;28;20078;-71
2021/10/12 09:38:16;;;;;;;4.32;2.78;;;;;;;16.73;50.30;101528.44;4985432;28;20046;-71
2021/10/12 09:40:45;;;;;;;5.30;2.90;;;;;;;16.75;50.65;101537.41;4986839;28;20169;-71
2021/10/12 09:43:18;;;;;;;4.68;2.88;;;;;;;16.78;50.80;101528.97;4987411;28;20051;-71
2021/10/12 09:45:46;;;;;;;4.50;2.92;;;;;;;16.78;50.20;101539.06;4971964;28;20058;-71
2021/10/12 09:48:35;;;;;;;3.78;2.88;;;;;;;16.78;50.87;101523.47;4987428;28;20594;-71
2021/10/12 09:51:13;;;;;;;5.25;3.25;;;;;;;16.79;50.76;101524.34;4989010;28;20054;-71
2021/10/12 09:53:43;;;;;;;5.82;3.45;;;;;;;16.77;50.72;101527.22;4988132;28;20355;-72
2021/10/12 09:56:11;;;;;;;4.85;3.10;;;;;;;16.77;50.36;101520.84;4986420;28;20105;-71
2021/10/12 09:58:39;;;;;;;5.05;3.40;;;;;;;16.76;50.78;101522.72;4988467;28;20054;-72
2021/10/12 10:01:08;;;;;;;5.35;3.25;;;;;;;16.79;50.63;101518.84;4986568;28;20082;-72
2021/10/12 10:03:36;;;;;;;4.45;3.00;;;;;;;16.78;50.63;101520.72;4988209;28;20050;-72
2021/10/12 10:06:07;;;;;;;5.25;3.42;;;;;;;16.80;50.82;101512.38;4989509;28;20053;-72
2021/10/12 10:08:43;;;;;;;5.88;3.72;;;;;;;16.83;51.04;101518.47;4988084;28;20133;-72
2021/10/12 10:11:32;;;;;;;4.28;3.08;;;;;;;16.79;50.86;101517.00;4984633;28;20050;-71
2021/10/12 10:14:01;;;;;;;5.20;3.55;;;;;;;16.83;50.53;101517.59;4988742;28;20073;-72
2021/10/12 10:16:29;;;;;;;4.78;3.50;;;;;;;16.81;50.81;101508.59;4984109;28;20050;-71
2021/10/12 10:18:57;;;;;;;5.20;3.50;;;;;;;16.82;51.04;101510.34;4987649;28;20047;-71
2021/10/12 10:21:24;;;;;;;5.10;3.75;;;;;;;16.82;51.09;101505.75;4987891;28;20047;-71
2021/10/12 10:24:09;;;;;;;5.05;3.55;;;;;;;16.86;51.10;101504.50;4987568;28;20109;-71
2021/10/12 10:26:40;;;;;;;5.60;4.40;;;;;;;16.87;51.21;101500.78;4990180;28;20050;-72
2021/10/12 10:29:38;;;;;;;6.80;4.15;;;;;;;16.85;51.87;101497.28;4987749;28;20042;-71
2021/10/12 10:32:24;;;;;;;5.95;4.65;;;;;;;16.83;51.14;101491.03;4990951;28;20058;-71
2021/10/12 10:35:12;;;;;;;7.50;4.47;;;;;;;16.92;51.87;101494.88;4992924;28;20050;-71
2021/10/12 10:37:38;;;;;;;5.97;4.32;;;;;;;16.91;51.48;101488.53;4991154;28;20046;-71
2021/10/12 10:40:26;;;;;;;7.30;5.00;;;;;;;16.96;51.72;101488.16;4991646;28;20054;-71
2021/10/12 10:42:58;;;;;;;6.82;5.07;;;;;;;16.99;52.15;101493.38;4989281;28;20039;-71
2021/10/12 10:45:47;;;;;;;7.13;5.38;;;;;;;17.00;52.03;101490.50;4994273;28;20078;-71
2021/10/12 10:48:16;;;;;;;7.40;4.95;;;;;;;17.02;51.50;101484.91;4991755;28;20047;-71
2021/10/12 10:50:52;;;;;;;7.65;5.20;;;;;;;17.03;51.46;101484.78;4990798;28;20046;-71
2021/10/12 10:53:36;;;;;;;7.80;5.53;;;;;;;17.08;51.87;101490.75;4990423;28;20158;-72
2021/10/12 10:56:03;;;;;;;7.68;4.78;;;;;;;17.10;51.50;101482.38;4991894;28;20504;-71
2021/10/12 10:58:30;;;;;;;8.77;5.30;;;;;;;17.13;51.18;101478.53;4992345;28;20050;-71
2021/10/12 11:00:57;;;;;;;8.05;5.32;;;;;;;17.15;51.30;101462.78;4987950;28;20689;-72
2021/10/12 11:03:32;;;;;;;9.25;5.90;;;;;;;17.22;51.76;101472.22;4990669;28;20520;-72
2021/10/12 11:06:00;;;;;;;7.85;5.80;;;;;;;17.21;51.29;101470.50;4997028;28;20044;-70
2021/10/12 11:08:28;;;;;;;7.78;5.15;;;;;;;17.23;51.22;101465.72;4998057;28;20440;-72
2021/10/12 11:11:02;;;;;;;6.22;4.97;;;;;;;17.27;51.29;101462.63;4994440;28;20046;-71
2021/10/12 11:13:42;;;;;;;8.80;5.28;;;;;;;17.29;51.89;101455.13;4991987;28;20050;-71
2021/10/12 11:16:15;;;;;;;8.48;4.82;;;;;;;17.31;52.16;101452.22;4996528;28;20053;-71
2021/10/12 11:18:45;;;;;;;7.70;5.10;;;;;;;17.32;51.68;101445.75;4976454;28;20049;-71
2021/10/12 11:21:15;;;;;;;6.30;4.55;;;;;;;17.34;51.55;101449.22;4992667;28;20083;-72
2021/10/12 11:23:49;;;;;;;7.50;4.32;;;;;;;17.37;52.24;101438.00;4992630;28;20555;-71
2021/10/12 11:26:19;;;;;;;8.00;4.60;;;;;;;17.37;51.83;101427.91;4993032;28;20081;-70
2021/10/12 11:28:51;;;;;;;7.32;4.38;;;;;;;17.41;51.50;101431.22;4991781;28;20103;-71
2021/10/12 11:31:23;;;;;;;6.93;4.50;;;;;;;17.43;52.02;101430.09;4991025;28;20053;-71
2021/10/12 11:33:53;;;;;;;6.65;4.55;;;;;;;17.45;51.81;101427.22;4989550;28;20047;-71